Time;durP1;ratioP1;P1;durP2;ratioP2;P2;SDS_P1;SDS_P2;PMS_P1;PMS_P2;Temp;Humidity;BMP_temperature;BMP_pressure;BME280_temperature;BME280_humidity;BME280_pressure;Samples;Min_cycle;Max_cycle;Signal;HPM_P1;HPM_P2
2023/06/16 00:02:23;;;;;;;5.47;4.57;;;18.10;50.20;;;;;;6070874;23;20033;-78
2023/06/16 00:04:52;;;;;;;5.82;4.38;;;18.10;50.10;;;;;;6070706;23;20478;-78
2023/06/16 00:07:19;;;;;;;7.78;4.75;;;18.00;51.80;;;;;;6071483;23;20017;-78
2023/06/16 00:09:49;;;;;;;7.43;4.53;;;17.80;52.40;;;;;;6071619;23;20451;-78
2023/06/16 00:12:14;;;;;;;10.00;5.28;;;17.80;57.20;;;;;;6071119;23;20024;-81
2023/06/16 00:14:40;;;;;;;7.13;4.88;;;17.80;56.00;;;;;;6072989;23;20092;-78
2023/06/16 00:17:06;;;;;;;6.38;4.60;;;17.90;56.20;;;;;;6069822;23;20010;-78
2023/06/16 00:19:32;;;;;;;7.28;4.78;;;17.90;51.30;;;;;;6119870;23;20049;-78
2023/06/16 00:21:59;;;;;;;9.95;4.63;;;17.90;50.90;;;;;;6094822;23;20013;-78
2023/06/16 00:24:26;;;;;;;6.13;4.15;;;17.80;54.90;;;;;;6095092;23;20009;-78
2023/06/16 00:26:51;;;;;;;5.70;3.70;;;17.70;52.40;;;;;;6095287;23;20017;-78
2023/06/16 00:29:17;;;;;;;8.55;4.60;;;17.70;52.30;;;;;;6071124;23;20013;-78
2023/06/16 00:31:43;;;;;;;6.25;4.75;;;17.60;56.30;;;;;;6071134;23;20466;-78
2023/06/16 00:34:08;;;;;;;7.15;4.85;;;17.50;55.30;;;;;;6072079;23;20041;-78
2023/06/16 00:36:34;;;;;;;10.95;4.57;;;17.50;55.10;;;;;;6117984;23;20013;-77
2023/06/16 00:38:59;;;;;;;10.00;4.57;;;17.30;57.80;;;;;;6095018;23;20080;-78
2023/06/16 00:41:26;;;;;;;7.78;4.55;;;17.20;60.90;;;;;;6094452;23;20014;-78
2023/06/16 00:43:53;;;;;;;6.15;4.30;;;17.10;58.80;;;;;;6094603;23;20029;-78
2023/06/16 00:46:25;;;;;;;10.95;4.65;;;17.10;59.60;;;;;;6094535;23;20020;-77
2023/06/16 00:48:51;;;;;;;6.50;4.13;;;17.10;55.90;;;;;;6071030;23;20014;-77
2023/06/16 00:51:16;;;;;;;10.20;4.72;;;17.10;55.70;;;;;;6070339;23;20329;-78
2023/06/16 00:53:42;;;;;;;8.15;4.65;;;17.00;56.90;;;;;;6070186;23;20083;-78
2023/06/16 00:56:07;;;;;;;7.38;4.80;;;16.90;58.60;;;;;;6071194;23;20018;-77
2023/06/16 00:58:33;;;;;;;6.18;4.50;;;16.90;60.10;;;;;;6070409;23;20072;-77
2023/06/16 01:00:59;;;;;;;5.82;4.72;;;16.80;61.50;;;;;;6068602;23;20021;-78
2023/06/16 01:03:26;;;;;;;4.15;3.25;;;16.90;54.60;;;;;;6093702;23;20116;-77
2023/06/16 01:05:56;;;;;;;6.32;4.70;;;17.10;53.50;;;;;;6070972;23;20091;-79
2023/06/16 01:08:41;;;;;;;7.43;4.28;;;17.20;53.60;;;;;;6072018;23;20508;-77
2023/06/16 01:11:15;;;;;;;6.20;3.92;;;17.00;52.90;;;;;;6070947;23;20388;-77
2023/06/16 01:14:25;;;;;;;6.55;5.05;;;17.00;53.40;;;;;;6095526;23;20488;-78
2023/06/16 01:16:51;;;;;;;5.88;4.05;;;16.90;53.20;;;;;;6138925;23;20018;-77
2023/06/16 01:19:28;;;;;;;5.32;4.50;;;16.80;53.00;;;;;;6095201;23;20032;-77
2023/06/16 01:22:09;;;;;;;11.07;4.90;;;16.50;54.30;;;;;;6094647;23;20014;-77
2023/06/16 01:24:35;;;;;;;6.72;5.25;;;16.50;55.50;;;;;;6072622;23;20877;-77
2023/06/16 01:27:01;;;;;;;8.77;5.53;;;16.40;57.70;;;;;;6069839;23;20013;-77
2023/06/16 01:29:26;;;;;;;9.10;4.97;;;16.30;57.70;;;;;;6070043;23;20068;-78
2023/06/16 01:31:54;;;;;;;8.30;5.63;;;16.20;55.70;;;;;;6070694;23;20009;-78
2023/06/16 01:34:20;;;;;;;6.70;5.35;;;16.20;57.40;;;;;;6096091;23;20439;-79
2023/06/16 01:36:45;;;;;;;4.15;3.40;;;16.30;55.10;;;;;;6096009;23;20072;-79
2023/06/16 01:39:11;;;;;;;4.85;4.35;;;16.40;54.30;;;;;;6072332;23;20008;-79
2023/06/16 01:41:37;;;;;;;6.13;4.70;;;16.60;55.30;;;;;;6071985;23;20066;-78
2023/06/16 01:44:02;;;;;;;6.88;4.60;;;16.50;54.00;;;;;;6071864;23;20028;-77
2023/06/16 01:46:28;;;;;;;8.10;4.63;;;16.40;53.90;;;;;;6071303;23;20139;-77
2023/06/16 01:48:54;;;;;;;6.70;4.70;;;16.30;54.10;;;;;;6069861;23;20005;-78
2023/06/16 01:51:20;;;;;;;5.20;4.60;;;16.20;54.00;;;;;;6070233;23;20006;-77
2023/06/16 01:53:45;;;;;;;5.93;3.80;;;16.10;53.90;;;;;;6118127;23;20013;-77
2023/06/16 01:56:11;;;;;;;8.07;5.05;;;16.10;54.60;;;;;;6094401;23;20429;-77
2023/06/16 01:58:37;;;;;;;9.45;4.97;;;16.10;54.50;;;;;;6069754;23;20089;-77
2023/06/16 02:01:04;;;;;;;7.25;4.20;;;16.10;54.80;;;;;;6068323;23;21411;-78
2023/06/16 02:03:40;;;;;;;6.97;4.28;;;16.00;54.70;;;;;;6094352;23;20456;-77
2023/06/16 02:06:09;;;;;;;10.25;5.63;;;16.00;55.10;;;;;;6070465;23;20010;-76
2023/06/16 02:08:34;;;;;;;7.20;5.10;;;15.90;55.10;;;;;;6070491;23;20455;-80
2023/06/16 02:11:00;;;;;;;10.57;5.43;;;15.80;54.20;;;;;;6120248;23;20017;-80
2023/06/16 02:13:25;;;;;;;5.28;4.72;;;15.70;54.60;;;;;;6095984;23;20009;-79
2023/06/16 02:15:51;;;;;;;10.48;5.15;;;15.70;54.80;;;;;;6072149;23;20028;-81
2023/06/16 02:18:24;;;;;;;6.80;5.15;;;15.70;55.00;;;;;;6096121;23;20072;-80
2023/06/16 02:20:49;;;;;;;7.15;5.03;;;15.60;60.30;;;;;;6074318;23;20064;-80
2023/06/16 02:23:15;;;;;;;8.65;5.53;;;15.40;64.10;;;;;;6095902;23;20459;-80
2023/06/16 02:25:40;;;;;;;6.28;5.10;;;15.20;64.80;;;;;;6096364;23;20494;-80
2023/06/16 02:28:06;;;;;;;7.47;5.45;;;15.20;62.70;;;;;;6093349;23;20475;-80
2023/06/16 02:30:32;;;;;;;9.65;5.85;;;15.20;61.60;;;;;;6093833;23;20017;-81
2023/06/16 02:32:58;;;;;;;8.00;5.88;;;15.00;65.60;;;;;;6093680;23;20651;-80
2023/06/16 02:35:24;;;;;;;12.55;5.80;;;14.90;64.70;;;;;;6094539;23;20447;-81
2023/06/16 02:37:51;;;;;;;14.75;5.80;;;14.90;63.90;;;;;;6069506;23;20013;-80
2023/06/16 02:40:17;;;;;;;7.63;5.30;;;14.90;61.60;;;;;;6094036;23;20493;-80
2023/06/16 02:42:42;;;;;;;9.80;6.88;;;14.80;60.60;;;;;;6094419;23;20021;-80
2023/06/16 02:45:08;;;;;;;7.97;4.72;;;14.80;60.00;;;;;;6069895;23;20040;-81
2023/06/16 02:47:34;;;;;;;10.02;5.53;;;14.70;61.70;;;;;;6093939;23;20030;-80
2023/06/16 02:49:59;;;;;;;9.90;5.50;;;14.50;70.40;;;;;;6092024;23;20032;-80
2023/06/16 02:52:25;;;;;;;10.60;5.93;;;14.50;72.20;;;;;;6069810;23;20025;-81
2023/06/16 02:54:51;;;;;;;11.45;6.05;;;14.50;70.90;;;;;;6094151;23;20021;-80
2023/06/16 02:57:16;;;;;;;7.72;6.03;;;14.70;62.00;;;;;;6069410;23;20448;-81
2023/06/16 02:59:42;;;;;;;8.20;5.97;;;14.80;60.30;;;;;;6094972;23;20010;-82
2023/06/16 03:02:07;;;;;;;9.82;5.70;;;14.70;65.10;;;;;;6094847;23;20400;-81
2023/06/16 03:04:34;;;;;;;9.02;5.28;;;14.60;64.10;;;;;;6071591;23;20097;-81
2023/06/16 03:07:02;;;;;;;9.55;5.32;;;14.60;64.10;;;;;;6095666;23;20017;-81
2023/06/16 03:09:28;;;;;;;11.63;6.43;;;14.50;66.10;;;;;;6096992;23;20108;-81
2023/06/16 03:11:55;;;;;;;10.13;6.10;;;14.40;67.70;;;;;;6095052;23;20021;-82
2023/06/16 03:14:21;;;;;;;6.95;5.85;;;14.50;64.00;;;;;;6071708;23;20043;-81
2023/06/16 03:16:50;;;;;;;7.65;6.07;;;14.30;65.60;;;;;;6095703;23;20329;-81
2023/06/16 03:19:16;;;;;;;8.35;6.25;;;14.20;67.20;;;;;;6097687;23;20088;-81
2023/06/16 03:21:43;;;;;;;10.38;6.38;;;14.10;65.10;;;;;;6072660;23;20066;-82
2023/06/16 03:24:09;;;;;;;8.52;5.82;;;14.10;68.40;;;;;;6071736;23;20024;-81
2023/06/16 03:26:35;;;;;;;9.57;5.72;;;14.10;66.40;;;;;;6070950;23;20010;-81
2023/06/16 03:29:00;;;;;;;7.43;6.18;;;14.00;67.20;;;;;;6071053;23;20019;-81
2023/06/16 03:31:26;;;;;;;11.60;6.10;;;14.00;70.10;;;;;;6071945;23;20025;-81
2023/06/16 03:33:52;;;;;;;6.72;5.05;;;14.10;66.40;;;;;;6071768;23;20021;-81
2023/06/16 03:36:18;;;;;;;5.13;4.53;;;14.20;62.90;;;;;;6095822;23;20033;-81
2023/06/16 03:38:44;;;;;;;7.60;5.60;;;14.40;60.70;;;;;;6096998;23;20009;-82
2023/06/16 03:41:10;;;;;;;9.95;5.78;;;14.50;59.70;;;;;;6097073;23;20006;-81
2023/06/16 03:43:35;;;;;;;8.10;4.97;;;14.50;59.10;;;;;;6097617;23;20021;-81
2023/06/16 03:46:01;;;;;;;8.80;5.72;;;14.50;59.00;;;;;;6096801;23;20058;-81
2023/06/16 03:48:26;;;;;;;10.05;5.53;;;14.60;59.50;;;;;;6073650;23;20009;-80
2023/06/16 03:50:53;;;;;;;7.30;5.88;;;14.50;59.00;;;;;;6097949;23;20105;-80
2023/06/16 03:53:20;;;;;;;7.93;5.43;;;14.40;63.60;;;;;;6073947;23;20009;-80
2023/06/16 03:55:47;;;;;;;12.38;6.85;;;14.30;65.90;;;;;;6073666;23;20393;-82
2023/06/16 03:58:15;;;;;;;9.65;6.38;;;14.20;66.70;;;;;;6074875;23;20019;-81
2023/06/16 04:00:41;;;;;;;10.48;6.43;;;14.20;66.20;;;;;;6074791;23;20017;-81
2023/06/16 04:03:07;;;;;;;9.93;6.10;;;14.30;66.30;;;;;;6073320;23;20064;-81
2023/06/16 04:05:33;;;;;;;6.75;5.40;;;14.50;63.80;;;;;;6122319;23;20654;-81
2023/06/16 04:07:58;;;;;;;7.20;6.05;;;14.60;60.50;;;;;;6097392;23;20017;-81
2023/06/16 04:10:24;;;;;;;6.88;4.88;;;14.80;59.90;;;;;;6072639;23;20013;-81
2023/06/16 04:12:50;;;;;;;9.57;6.20;;;14.90;59.40;;;;;;6073418;23;20010;-81
2023/06/16 04:15:15;;;;;;;8.77;5.85;;;15.00;59.70;;;;;;6073062;23;20022;-81
2023/06/16 04:17:41;;;;;;;7.07;5.22;;;15.10;59.80;;;;;;6122795;23;20033;-81
2023/06/16 04:20:10;;;;;;;10.32;6.18;;;15.10;62.40;;;;;;6073047;23;20478;-81
2023/06/16 04:22:36;;;;;;;7.35;5.60;;;15.20;64.80;;;;;;6098479;23;20072;-81
2023/06/16 04:25:02;;;;;;;11.07;6.60;;;15.30;65.20;;;;;;6097452;23;20336;-81
2023/06/16 04:27:28;;;;;;;6.28;5.40;;;15.50;65.40;;;;;;6073030;23;20045;-76
2023/06/16 04:29:54;;;;;;;9.82;5.78;;;15.60;65.20;;;;;;6097053;23;20393;-77
2023/06/16 04:32:20;;;;;;;7.85;5.60;;;15.80;65.00;;;;;;6071982;23;20018;-78
2023/06/16 04:34:46;;;;;;;13.43;5.50;;;16.00;64.20;;;;;;6096802;23;20013;-78
2023/06/16 04:37:14;;;;;;;8.38;5.57;;;16.20;64.10;;;;;;6096910;23;20024;-77
2023/06/16 04:39:40;;;;;;;12.18;5.68;;;16.40;62.50;;;;;;6073123;23;20017;-78
2023/06/16 04:42:09;;;;;;;8.82;6.28;;;16.60;62.50;;;;;;6096900;23;20019;-78
2023/06/16 04:44:34;;;;;;;6.95;5.85;;;16.80;62.60;;;;;;6072972;23;20006;-77
2023/06/16 04:47:01;;;;;;;10.10;5.72;;;17.00;63.10;;;;;;6072004;23;20117;-77
2023/06/16 04:49:26;;;;;;;7.18;5.75;;;17.20;62.50;;;;;;6096489;23;20391;-77
2023/06/16 04:51:52;;;;;;;10.35;5.93;;;17.30;62.30;;;;;;6095968;23;20084;-77
2023/06/16 04:54:18;;;;;;;6.93;5.82;;;17.40;62.70;;;;;;6120780;23;20080;-77
2023/06/16 04:56:45;;;;;;;9.07;6.07;;;17.40;62.40;;;;;;6096935;23;20103;-77
2023/06/16 04:59:11;;;;;;;9.20;5.55;;;17.50;61.90;;;;;;6072003;23;20048;-77
2023/06/16 05:01:37;;;;;;;12.43;5.50;;;17.50;61.60;;;;;;6095875;23;20415;-77
2023/06/16 05:04:02;;;;;;;7.60;5.60;;;17.60;61.40;;;;;;6069549;23;20022;-77
2023/06/16 05:06:28;;;;;;;6.70;4.80;;;17.70;61.70;;;;;;6094009;23;20010;-77
2023/06/16 05:08:54;;;;;;;8.18;5.70;;;17.80;61.60;;;;;;6071544;23;20029;-78
2023/06/16 05:11:20;;;;;;;8.70;6.05;;;17.90;62.20;;;;;;6093691;23;20005;-77
2023/06/16 05:13:45;;;;;;;10.70;6.32;;;18.10;62.90;;;;;;6070928;23;20013;-78
2023/06/16 05:16:11;;;;;;;9.25;5.80;;;18.10;63.30;;;;;;6093901;23;20089;-78
2023/06/16 05:18:37;;;;;;;9.50;5.93;;;18.20;63.20;;;;;;6070263;23;20037;-78
2023/06/16 05:21:02;;;;;;;11.32;6.22;;;18.50;64.50;;;;;;6070126;23;20064;-78
2023/06/16 05:23:28;;;;;;;9.48;5.65;;;18.70;63.50;;;;;;6070005;23;20471;-77
2023/06/16 05:25:53;;;;;;;11.77;6.25;;;18.90;64.10;;;;;;6069622;23;20036;-78
2023/06/16 05:28:19;;;;;;;9.57;6.07;;;19.20;63.30;;;;;;6093422;23;20005;-78
2023/06/16 05:30:45;;;;;;;7.85;5.80;;;19.30;63.60;;;;;;6095304;23;20009;-78
2023/06/16 05:33:10;;;;;;;8.38;5.47;;;19.50;62.90;;;;;;6093514;23;20013;-78
2023/06/16 05:35:37;;;;;;;14.52;5.68;;;19.80;62.40;;;;;;6068694;23;20022;-78
2023/06/16 05:38:03;;;;;;;8.07;5.18;;;20.00;62.70;;;;;;6094257;23;20431;-77
2023/06/16 05:40:28;;;;;;;10.30;5.82;;;20.30;62.00;;;;;;6093015;23;20018;-77
2023/06/16 05:42:54;;;;;;;8.75;5.78;;;20.50;62.20;;;;;;6092841;23;20567;-77
2023/06/16 05:45:20;;;;;;;9.18;5.43;;;20.80;62.20;;;;;;6094494;23;20010;-78
2023/06/16 05:47:46;;;;;;;12.25;5.32;;;21.20;61.70;;;;;;6072514;23;20017;-78
2023/06/16 05:50:11;;;;;;;7.88;5.25;;;21.50;62.40;;;;;;6093630;23;20405;-78
2023/06/16 05:52:37;;;;;;;7.47;5.78;;;21.80;61.80;;;;;;6068650;23;20092;-79
2023/06/16 05:55:03;;;;;;;7.80;5.30;;;22.10;61.20;;;;;;6071817;23;20006;-78
2023/06/16 05:57:29;;;;;;;5.45;4.68;;;22.40;60.80;;;;;;6071532;23;20478;-78
2023/06/16 05:59:55;;;;;;;11.25;6.50;;;22.50;60.20;;;;;;6070248;23;20384;-78
2023/06/16 06:02:20;;;;;;;6.90;5.18;;;22.80;60.20;;;;;;6095021;23;20056;-77
2023/06/16 06:04:46;;;;;;;8.88;5.25;;;23.00;59.80;;;;;;6072764;23;20479;-77
2023/06/16 06:07:11;;;;;;;9.38;5.57;;;23.30;59.60;;;;;;6068978;23;20113;-77
2023/06/16 06:09:37;;;;;;;7.95;5.70;;;23.60;59.30;;;;;;6098158;23;20040;-78
2023/06/16 06:12:03;;;;;;;7.65;5.28;;;23.90;58.00;;;;;;6075515;23;20010;-77
2023/06/16 06:14:29;;;;;;;6.57;4.70;;;24.10;56.70;;;;;;6110232;23;20010;-78
2023/06/16 06:16:54;;;;;;;10.02;5.60;;;24.40;56.40;;;;;;6068735;23;20594;-78
2023/06/16 06:19:23;;;;;;;7.78;4.43;;;24.50;55.90;;;;;;6098203;23;20010;-77
2023/06/16 06:21:48;;;;;;;5.93;4.10;;;24.70;55.90;;;;;;6121456;23;20678;-78
2023/06/16 06:24:14;;;;;;;6.90;4.50;;;24.90;55.70;;;;;;6097702;23;20006;-77
2023/06/16 06:26:40;;;;;;;5.63;4.35;;;25.20;54.60;;;;;;6096533;23;20735;-77
2023/06/16 06:29:05;;;;;;;4.82;3.92;;;25.40;53.90;;;;;;6095953;23;20041;-78
2023/06/16 06:31:32;;;;;;;7.05;4.93;;;25.70;53.70;;;;;;6095975;23;20006;-78
2023/06/16 06:33:57;;;;;;;11.60;4.78;;;25.70;53.50;;;;;;6096104;23;20113;-78
2023/06/16 06:36:29;;;;;;;10.35;5.03;;;26.10;53.10;;;;;;6096602;23;20038;-77
2023/06/16 06:38:55;;;;;;;9.18;5.00;;;26.40;52.80;;;;;;6075638;23;20013;-77
2023/06/16 06:41:24;;;;;;;14.77;5.38;;;26.50;52.20;;;;;;6097379;23;20340;-77
2023/06/16 06:43:50;;;;;;;9.57;4.45;;;26.80;51.00;;;;;;6074347;23;20076;-78
2023/06/16 06:46:18;;;;;;;9.73;4.82;;;27.00;51.00;;;;;;6098508;23;20021;-77
2023/06/16 06:48:44;;;;;;;10.70;4.65;;;27.20;50.70;;;;;;6073262;23;20507;-77
2023/06/16 06:51:10;;;;;;;5.72;3.90;;;27.40;50.80;;;;;;6072622;23;20012;-76
2023/06/16 06:53:36;;;;;;;10.32;5.38;;;27.70;50.30;;;;;;6096791;23;20014;-77
2023/06/16 06:56:01;;;;;;;6.00;4.22;;;27.90;50.50;;;;;;6072856;23;20044;-77
2023/06/16 06:58:27;;;;;;;6.18;4.03;;;27.90;49.70;;;;;;6073625;23;20014;-77
2023/06/16 07:00:53;;;;;;;11.20;4.30;;;27.90;49.40;;;;;;6073654;23;20033;-77
2023/06/16 07:03:18;;;;;;;11.70;4.63;;;28.10;49.60;;;;;;6072238;23;20033;-78
2023/06/16 07:05:44;;;;;;;6.88;4.47;;;28.30;49.30;;;;;;6097950;23;20100;-77
2023/06/16 07:08:10;;;;;;;6.53;3.80;;;28.60;48.60;;;;;;6082662;23;20441;-78
2023/06/16 07:10:36;;;;;;;4.68;3.50;;;28.70;47.80;;;;;;6071845;23;20037;-77
2023/06/16 07:13:02;;;;;;;12.70;3.45;;;28.70;47.70;;;;;;6096035;23;20094;-78
2023/06/16 07:15:27;;;;;;;4.68;3.13;;;28.70;47.20;;;;;;6072407;23;20041;-80
2023/06/16 07:17:53;;;;;;;8.75;5.13;;;28.50;46.90;;;;;;6072300;23;20017;-78
2023/06/16 07:20:19;;;;;;;9.38;4.10;;;28.80;47.80;;;;;;6096604;23;20036;-79
2023/06/16 07:22:45;;;;;;;5.25;3.72;;;29.50;45.10;;;;;;6097887;23;20021;-79
2023/06/16 07:25:11;;;;;;;6.35;3.78;;;29.70;44.70;;;;;;6072944;23;20012;-79
2023/06/16 07:27:37;;;;;;;4.78;3.85;;;29.70;44.60;;;;;;6073642;23;20013;-80
2023/06/16 07:30:07;;;;;;;9.18;4.07;;;30.00;42.40;;;;;;6073419;23;20021;-80
2023/06/16 07:32:32;;;;;;;5.68;3.47;;;30.20;42.60;;;;;;6078207;23;20400;-79
2023/06/16 07:34:58;;;;;;;6.55;3.63;;;30.30;42.40;;;;;;6082745;23;20017;-80
2023/06/16 07:37:25;;;;;;;8.93;3.95;;;30.40;42.30;;;;;;6078418;23;20340;-79
2023/06/16 07:39:53;;;;;;;8.45;3.78;;;30.60;41.50;;;;;;6081628;23;20021;-80
2023/06/16 07:42:19;;;;;;;6.38;3.50;;;30.80;41.40;;;;;;6107266;23;20333;-80
2023/06/16 07:44:44;;;;;;;8.52;3.47;;;31.10;40.90;;;;;;6132021;23;20028;-80
2023/06/16 07:47:10;;;;;;;3.60;3.20;;;31.30;39.60;;;;;;6082988;23;20005;-81
2023/06/16 07:49:36;;;;;;;6.95;3.20;;;31.20;39.60;;;;;;6108563;23;20009;-80
2023/06/16 07:52:02;;;;;;;9.32;3.28;;;31.20;39.40;;;;;;6108547;23;20018;-81
2023/06/16 07:54:27;;;;;;;6.07;3.58;;;31.20;39.70;;;;;;6106866;23;20012;-80
2023/06/16 07:56:53;;;;;;;6.57;2.95;;;31.30;39.20;;;;;;6107163;23;20013;-80
2023/06/16 07:59:19;;;;;;;4.72;3.50;;;31.60;38.90;;;;;;6105075;23;20061;-79
2023/06/16 08:01:45;;;;;;;6.80;3.17;;;32.00;36.30;;;;;;6104779;23;20037;-79
2023/06/16 08:04:11;;;;;;;5.85;3.35;;;32.20;35.10;;;;;;6108909;23;20028;-79
2023/06/16 08:06:37;;;;;;;3.75;2.95;;;32.20;35.00;;;;;;6081850;23;20452;-80
2023/06/16 08:09:05;;;;;;;3.05;2.72;;;32.20;36.20;;;;;;6130873;23;20022;-81
2023/06/16 08:11:31;;;;;;;5.28;3.50;;;32.20;35.90;;;;;;6110493;23;20096;-81
2023/06/16 08:13:56;;;;;;;7.57;3.05;;;32.40;35.00;;;;;;6108279;23;20077;-80
2023/06/16 08:16:23;;;;;;;3.60;3.30;;;32.60;34.50;;;;;;6086389;23;20013;-80
2023/06/16 08:18:55;;;;;;;6.15;3.35;;;32.60;35.00;;;;;;6095488;23;20061;-80
2023/06/16 08:21:20;;;;;;;4.75;3.08;;;32.70;35.30;;;;;;6110755;23;20096;-80
2023/06/16 08:23:47;;;;;;;5.57;2.95;;;32.90;34.80;;;;;;6112322;23;20360;-80
2023/06/16 08:26:12;;;;;;;3.70;3.20;;;33.00;35.30;;;;;;6138185;23;20017;-81
2023/06/16 08:28:40;;;;;;;6.88;3.22;;;33.30;33.30;;;;;;6108834;23;20010;-81
2023/06/16 08:31:06;;;;;;;5.22;3.75;;;33.30;33.30;;;;;;6093836;23;20404;-82
2023/06/16 08:33:32;;;;;;;3.33;3.03;;;33.20;34.70;;;;;;6115150;23;20020;-81
2023/06/16 08:35:57;;;;;;;3.78;3.00;;;33.10;35.20;;;;;;6073997;23;20014;-80
2023/06/16 08:38:23;;;;;;;3.53;3.10;;;33.30;35.00;;;;;;6099180;23;19998;-81
2023/06/16 08:40:49;;;;;;;5.32;3.35;;;33.70;32.60;;;;;;6097840;23;20081;-81
2023/06/16 08:43:15;;;;;;;4.75;3.05;;;33.70;33.30;;;;;;6120616;23;20013;-81
2023/06/16 08:45:40;;;;;;;6.97;3.13;;;33.80;32.80;;;;;;6097842;23;20030;-81
2023/06/16 08:48:06;;;;;;;5.18;2.60;;;33.80;33.20;;;;;;6120440;23;20021;-81
2023/06/16 08:50:32;;;;;;;4.90;3.13;;;34.00;33.20;;;;;;6094034;23;20012;-81
2023/06/16 08:53:00;;;;;;;7.88;3.20;;;34.00;33.40;;;;;;6076983;23;20065;-82
2023/06/16 08:55:27;;;;;;;7.70;2.65;;;34.30;33.30;;;;;;6131960;23;20013;-81
2023/06/16 08:57:56;;;;;;;5.65;3.20;;;34.50;32.40;;;;;;6119939;23;20352;-82
2023/06/16 09:00:21;;;;;;;6.18;3.10;;;34.60;31.90;;;;;;6122413;23;20445;-83
2023/06/16 09:02:49;;;;;;;4.47;3.17;;;34.50;32.10;;;;;;6098436;23;20017;-81
2023/06/16 09:05:16;;;;;;;8.00;3.22;;;34.60;31.90;;;;;;6119190;23;20033;-81
2023/06/16 09:07:42;;;;;;;3.20;2.90;;;34.80;31.60;;;;;;6115190;23;20017;-81
2023/06/16 09:10:08;;;;;;;6.07;3.35;;;34.80;31.10;;;;;;6116430;23;20025;-81
2023/06/16 09:12:34;;;;;;;12.40;3.72;;;34.90;31.40;;;;;;6117173;23;20017;-81
2023/06/16 09:15:01;;;;;;;9.68;3.45;;;35.00;31.70;;;;;;6097566;23;20010;-80
2023/06/16 09:17:30;;;;;;;6.22;3.30;;;35.10;32.00;;;;;;6118180;23;20064;-80
2023/06/16 09:19:55;;;;;;;4.53;3.97;;;35.30;31.40;;;;;;6092692;23;20014;-81
2023/06/16 09:22:25;;;;;;;4.75;2.75;;;35.50;30.30;;;;;;6091877;23;20020;-82
2023/06/16 09:24:58;;;;;;;4.20;2.88;;;35.20;29.90;;;;;;6117283;23;20036;-82
2023/06/16 09:27:49;;;;;;;6.03;2.63;;;35.30;29.70;;;;;;6116967;23;20096;-81
2023/06/16 09:54:27;;;;;;;3.45;3.10;;;35.20;29.90;;;;;;6167341;23;20013;-81
2023/06/16 09:56:59;;;;;;;3.78;3.47;;;35.50;29.40;;;;;;6127906;23;20025;-82
2023/06/16 09:59:27;;;;;;;6.75;3.88;;;35.50;29.40;;;;;;6098029;23;20017;-80
2023/06/16 10:01:54;;;;;;;5.20;3.22;;;35.70;28.30;;;;;;6114193;23;20014;-80
2023/06/16 10:04:24;;;;;;;4.10;3.45;;;35.60;29.00;;;;;;6092059;23;20692;-82
2023/06/16 10:07:00;;;;;;;5.68;3.40;;;35.50;28.90;;;;;;6092321;23;20005;-81
2023/06/16 10:09:39;;;;;;;4.30;3.15;;;35.60;28.70;;;;;;6081382;23;20013;-96
2023/06/16 10:12:09;;;;;;;4.28;3.58;;;35.50;29.50;;;;;;6067104;23;20010;-94
2023/06/16 10:14:36;;;;;;;6.07;3.20;;;35.50;28.90;;;;;;6048890;23;20025;-91
2023/06/16 10:17:06;;;;;;;4.05;3.42;;;35.60;28.80;;;;;;6097492;23;20495;-94
2023/06/16 10:19:42;;;;;;;5.13;3.80;;;36.00;29.00;;;;;;6037620;23;20029;-93
2023/06/16 10:22:11;;;;;;;4.50;3.50;;;36.00;28.50;;;;;;6110033;23;20006;-93
2023/06/16 10:24:39;;;;;;;5.30;3.70;;;36.10;28.20;;;;;;6123913;23;20479;-93
2023/06/16 10:27:08;;;;;;;5.35;3.30;;;36.20;28.90;;;;;;6124290;23;20038;-93
2023/06/16 10:29:35;;;;;;;5.53;3.67;;;36.20;29.30;;;;;;6111085;23;20014;-93
2023/06/16 10:32:07;;;;;;;5.07;3.65;;;36.40;29.00;;;;;;6124151;23;20006;-95
2023/06/16 10:35:05;;;;;;;3.70;3.40;;;36.40;29.10;;;;;;6108291;23;20014;-93
2023/06/16 10:37:32;;;;;;;4.18;3.20;;;36.20;29.50;;;;;;6108270;23;20089;-92
2023/06/16 10:39:58;;;;;;;7.80;3.47;;;36.50;29.60;;;;;;6111287;23;20022;-94
2023/06/16 10:42:24;;;;;;;7.57;3.90;;;36.60;29.30;;;;;;6086047;23;20034;-93
2023/06/16 10:45:03;;;;;;;;;;;;;;;;;;;;;
2023/06/16 10:47:31;;;;;;;5.35;3.67;;;36.80;29.10;;;;;;6124551;23;21281;-95
2023/06/16 10:50:00;;;;;;;9.10;4.40;;;36.90;28.40;;;;;;6086719;23;20453;-92
2023/06/16 10:52:29;;;;;;;21.08;4.00;;;36.90;28.90;;;;;;6110206;23;20581;-93
2023/06/16 10:54:55;;;;;;;3.97;3.58;;;37.00;29.00;;;;;;6120065;23;20016;-93
2023/06/16 10:57:21;;;;;;;8.70;4.45;;;37.20;28.50;;;;;;6084843;23;20445;-92
2023/06/16 11:00:12;;;;;;;3.70;3.40;;;37.10;28.20;;;;;;6070761;23;20022;-92
2023/06/16 11:03:00;;;;;;;7.38;4.38;;;37.10;29.30;;;;;;6105610;23;20078;-93
2023/06/16 11:05:38;;;;;;;4.97;3.88;;;37.20;29.40;;;;;;6085083;23;20016;-93
2023/06/16 11:08:08;;;;;;;7.57;4.20;;;37.30;29.70;;;;;;6116760;23;20025;-95
2023/06/16 11:10:58;;;;;;;7.45;3.83;;;37.40;29.20;;;;;;6110169;23;20276;-96
2023/06/16 11:13:31;;;;;;;5.38;3.55;;;37.90;29.40;;;;;;6016316;23;20018;-96
2023/06/16 11:18:44;;;;;;;5.88;3.65;;;37.90;28.90;;;;;;6090636;23;20631;-80
2023/06/16 11:21:12;;;;;;;4.32;3.40;;;37.70;29.20;;;;;;6051739;23;20010;-80
2023/06/16 11:23:37;;;;;;;4.40;3.95;;;37.70;29.60;;;;;;6086453;23;20018;-81
2023/06/16 11:26:08;;;;;;;4.40;4.00;;;37.90;29.80;;;;;;6086610;23;20067;-81
2023/06/16 11:28:36;;;;;;;9.27;4.18;;;38.30;29.00;;;;;;6063824;23;20009;-81
2023/06/16 11:31:02;;;;;;;7.13;4.07;;;38.50;28.50;;;;;;6053541;23;20506;-81
2023/06/16 11:33:30;;;;;;;10.50;4.13;;;38.50;27.40;;;;;;6081371;23;20014;-81
2023/06/16 11:35:57;;;;;;;5.50;3.92;;;38.20;28.60;;;;;;6078342;23;20021;-81
2023/06/16 11:38:25;;;;;;;4.22;3.72;;;38.40;28.30;;;;;;6098936;23;20083;-81
2023/06/16 11:40:53;;;;;;;6.78;3.85;;;38.40;28.60;;;;;;6041150;23;20010;-81
2023/06/16 11:43:21;;;;;;;6.80;3.17;;;38.50;28.20;;;;;;6048961;23;20034;-81
2023/06/16 11:45:47;;;;;;;4.82;3.60;;;38.60;27.00;;;;;;6063979;23;20016;-81
2023/06/16 11:48:18;;;;;;;4.05;3.72;;;38.30;28.00;;;;;;6063035;23;20405;-81
2023/06/16 11:50:44;;;;;;;8.52;3.97;;;38.30;27.90;;;;;;6044171;23;20026;-81
2023/06/16 11:53:14;;;;;;;5.97;3.42;;;38.20;28.70;;;;;;6088851;23;20015;-81
2023/06/16 11:55:50;;;;;;;3.92;3.20;;;38.20;28.40;;;;;;6089052;23;20014;-81
2023/06/16 11:58:16;;;;;;;5.50;3.67;;;38.40;28.60;;;;;;6060764;23;20102;-81
2023/06/16 12:00:41;;;;;;;5.10;3.35;;;38.70;27.60;;;;;;6017377;23;20025;-81
2023/06/16 12:03:07;;;;;;;7.95;4.18;;;38.60;28.10;;;;;;6044338;23;20027;-81
2023/06/16 12:05:33;;;;;;;4.53;3.70;;;38.70;27.80;;;;;;6033536;23;20058;-80
2023/06/16 12:07:59;;;;;;;5.88;3.85;;;38.90;28.30;;;;;;6055161;23;20034;-80
2023/06/16 12:10:26;;;;;;;6.70;4.05;;;38.90;27.50;;;;;;6030352;23;20030;-81
2023/06/16 12:12:52;;;;;;;9.70;4.18;;;38.90;27.90;;;;;;6057318;23;20014;-80
2023/06/16 12:15:21;;;;;;;3.33;3.03;;;39.00;27.00;;;;;;6032812;23;20022;-80
2023/06/16 12:17:47;;;;;;;4.80;3.53;;;38.90;27.70;;;;;;6032008;23;20002;-81
2023/06/16 12:20:13;;;;;;;8.30;3.88;;;39.10;27.70;;;;;;6005060;23;20015;-80
2023/06/16 12:22:53;;;;;;;4.32;3.08;;;39.20;26.80;;;;;;6050265;23;20018;-80
2023/06/16 12:25:19;;;;;;;4.03;3.72;;;39.10;27.50;;;;;;6030495;23;20021;-81
2023/06/16 12:27:45;;;;;;;4.53;3.75;;;39.20;27.40;;;;;;6054185;23;20022;-80
2023/06/16 12:30:14;;;;;;;10.07;3.90;;;39.30;26.70;;;;;;6040262;23;20465;-80
2023/06/16 12:32:41;;;;;;;6.93;3.70;;;39.20;26.10;;;;;;6047917;23;20113;-82
2023/06/16 12:35:06;;;;;;;4.78;3.92;;;39.20;27.30;;;;;;6035600;23;20026;-82
2023/06/16 12:37:32;;;;;;;3.85;3.50;;;39.30;26.50;;;;;;6051870;23;20019;-81
2023/06/16 12:40:07;;;;;;;8.55;4.00;;;39.40;26.90;;;;;;6054276;23;20019;-81
2023/06/16 12:42:34;;;;;;;4.90;3.40;;;38.90;26.90;;;;;;6054799;23;20018;-81
2023/06/16 12:45:03;;;;;;;4.57;3.33;;;38.60;27.40;;;;;;6019815;23;20013;-81
2023/06/16 12:47:30;;;;;;;4.18;3.03;;;38.50;27.60;;;;;;6048344;23;20061;-81
2023/06/16 12:49:57;;;;;;;4.25;3.10;;;38.70;28.80;;;;;;6028911;23;20062;-81
2023/06/16 12:52:24;;;;;;;6.10;3.45;;;38.90;27.70;;;;;;6025201;23;20034;-81
2023/06/16 12:54:50;;;;;;;4.25;3.10;;;38.90;28.00;;;;;;6025557;23;20023;-81
2023/06/16 12:57:16;;;;;;;4.90;3.20;;;38.90;28.60;;;;;;6050197;23;20458;-81
2023/06/16 12:59:41;;;;;;;5.00;3.45;;;38.80;27.40;;;;;;6014666;23;20040;-81
2023/06/16 13:02:07;;;;;;;4.38;3.33;;;38.60;27.10;;;;;;6025117;23;20022;-82
2023/06/16 13:04:34;;;;;;;3.78;3.22;;;38.50;27.50;;;;;;6023727;23;20011;-81
2023/06/16 13:07:00;;;;;;;6.88;3.55;;;38.60;27.60;;;;;;6069779;23;20092;-82
2023/06/16 13:09:26;;;;;;;5.47;3.30;;;38.70;27.80;;;;;;6024079;23;20015;-81
2023/06/16 13:11:54;;;;;;;5.07;3.13;;;38.80;27.70;;;;;;6022667;23;20030;-81
2023/06/16 13:14:22;;;;;;;3.60;3.30;;;38.90;27.70;;;;;;6049803;23;20017;-80